Time;durP1;ratioP1;P1;durP2;ratioP2;P2;SDS_P1;SDS_P2;PMS_P1;PMS_P2;Temp;Humidity;BMP_temperature;BMP_pressure;BME280_temperature;BME280_humidity;BME280_pressure;Samples;Min_cycle;Max_cycle;Signal;HPM_P1;HPM_P2
2022/07/18 00:01:43;;;;;;;7.30;3.47;;;12.80;99.90;;;;;;5010392;28;20093;-81
2022/07/18 00:04:09;;;;;;;8.77;3.15;;;12.80;99.90;;;;;;5012148;28;20022;-83
2022/07/18 00:06:35;;;;;;;11.63;3.80;;;12.90;99.90;;;;;;5011095;28;20030;-81
2022/07/18 00:09:02;;;;;;;4.20;3.80;;;12.80;99.90;;;;;;4993901;28;20051;-83
2022/07/18 00:11:28;;;;;;;9.18;3.65;;;12.80;99.90;;;;;;5012035;28;20041;-82
2022/07/18 00:13:53;;;;;;;3.97;3.60;;;12.80;99.90;;;;;;5011566;28;20034;-83
2022/07/18 00:16:19;;;;;;;4.80;3.50;;;12.80;99.90;;;;;;5011896;28;20101;-83
2022/07/18 00:18:45;;;;;;;6.85;4.03;;;12.90;99.90;;;;;;4993815;28;20024;-82
2022/07/18 00:21:11;;;;;;;9.25;3.35;;;12.80;99.90;;;;;;5011249;28;20114;-83
2022/07/18 00:23:37;;;;;;;7.72;3.75;;;12.80;99.90;;;;;;4993859;28;20057;-82
2022/07/18 00:26:03;;;;;;;6.15;3.25;;;12.70;99.90;;;;;;5011491;28;20029;-83
2022/07/18 00:28:29;;;;;;;5.63;4.10;;;12.70;99.90;;;;;;5011561;28;20033;-82
2022/07/18 00:30:55;;;;;;;5.93;3.05;;;12.60;99.90;;;;;;5011617;28;20032;-81
2022/07/18 00:33:21;;;;;;;3.63;3.30;;;12.60;99.90;;;;;;5010350;28;20251;-83
2022/07/18 00:35:47;;;;;;;8.65;3.75;;;12.60;99.90;;;;;;4993130;28;20030;-83
2022/07/18 00:38:12;;;;;;;5.93;3.67;;;12.50;99.90;;;;;;5013479;28;20109;-83
2022/07/18 00:40:38;;;;;;;9.23;3.90;;;12.40;99.90;;;;;;5031304;28;20026;-82
2022/07/18 00:43:04;;;;;;;7.40;3.70;;;12.40;99.90;;;;;;5015105;28;20029;-84
2022/07/18 00:45:30;;;;;;;5.72;4.45;;;12.50;99.90;;;;;;5032975;28;20057;-81
2022/07/18 00:47:56;;;;;;;5.88;3.67;;;12.30;99.90;;;;;;5030833;28;20030;-81
2022/07/18 00:50:23;;;;;;;4.85;4.20;;;12.20;99.90;;;;;;5032401;28;20033;-83
2022/07/18 00:52:49;;;;;;;5.50;4.10;;;12.10;99.90;;;;;;5031324;28;20034;-81
2022/07/18 00:55:15;;;;;;;4.68;3.72;;;12.20;99.90;;;;;;5031940;28;20077;-80
2022/07/18 00:57:42;;;;;;;8.05;4.10;;;12.20;99.90;;;;;;5031287;28;20009;-82
2022/07/18 01:02:56;;;;;;;10.43;4.60;;;12.20;99.90;;;;;;5010585;28;20048;-82
2022/07/18 01:05:22;;;;;;;7.47;4.63;;;12.20;99.90;;;;;;4993710;28;20049;-82
2022/07/18 01:07:47;;;;;;;3.97;3.55;;;12.10;99.90;;;;;;5010780;28;20278;-83
2022/07/18 01:10:13;;;;;;;10.73;4.53;;;12.00;99.90;;;;;;5010485;28;20030;-81
2022/07/18 01:12:39;;;;;;;13.60;4.78;;;12.00;99.90;;;;;;5010384;28;20036;-81
2022/07/18 01:15:06;;;;;;;5.00;3.80;;;12.00;99.90;;;;;;5010892;28;20034;-82
2022/07/18 01:17:32;;;;;;;5.57;4.25;;;12.00;99.90;;;;;;5010837;28;20026;-82
2022/07/18 01:20:07;;;;;;;5.38;4.40;;;12.10;99.90;;;;;;5010202;28;20018;-82
2022/07/18 01:22:33;;;;;;;7.50;4.47;;;12.10;99.90;;;;;;5010540;28;20107;-81
2022/07/18 01:24:59;;;;;;;4.50;4.10;;;12.00;99.90;;;;;;5009627;28;20053;-81
2022/07/18 01:27:25;;;;;;;8.25;5.20;;;12.00;99.90;;;;;;5010327;28;20022;-82
2022/07/18 01:29:52;;;;;;;5.70;4.95;;;12.00;99.90;;;;;;5010511;28;20048;-83
2022/07/18 01:32:19;;;;;;;5.25;4.65;;;12.00;99.90;;;;;;5010150;28;20036;-83
2022/07/18 01:34:46;;;;;;;8.75;5.03;;;12.00;99.90;;;;;;5010026;28;20022;-83
2022/07/18 01:37:13;;;;;;;9.82;5.22;;;11.90;99.90;;;;;;4992926;28;20125;-82
2022/07/18 01:39:39;;;;;;;6.22;5.53;;;11.90;99.90;;;;;;5010617;28;20044;-82
2022/07/18 01:42:07;;;;;;;7.03;5.45;;;11.80;99.90;;;;;;5010497;28;20019;-80
2022/07/18 01:44:34;;;;;;;7.15;5.45;;;11.70;99.90;;;;;;5010577;28;20046;-82
2022/07/18 01:47:00;;;;;;;6.75;5.43;;;11.60;99.90;;;;;;5010474;28;20485;-80
2022/07/18 01:49:27;;;;;;;11.38;5.85;;;11.60;99.90;;;;;;5009899;28;20061;-83
2022/07/18 01:51:54;;;;;;;8.80;5.57;;;11.60;99.90;;;;;;5009779;28;20044;-82
2022/07/18 01:54:21;;;;;;;7.15;4.65;;;11.60;99.90;;;;;;4992790;28;20030;-82
2022/07/18 01:56:47;;;;;;;8.77;5.60;;;11.60;99.90;;;;;;4992524;28;20428;-82
2022/07/18 01:59:13;;;;;;;7.20;5.25;;;11.70;99.90;;;;;;5010412;28;20026;-81
2022/07/18 02:01:38;;;;;;;8.75;4.97;;;11.60;99.90;;;;;;5010071;28;20055;-82
2022/07/18 02:04:04;;;;;;;10.57;4.75;;;11.60;99.90;;;;;;5008111;28;20097;-80
2022/07/18 02:06:30;;;;;;;10.02;5.60;;;11.60;99.90;;;;;;4990632;28;20073;-83
2022/07/18 02:08:56;;;;;;;7.80;5.05;;;11.50;99.90;;;;;;4973198;28;20034;-81
2022/07/18 02:11:22;;;;;;;7.68;5.65;;;11.50;99.90;;;;;;4990638;28;20030;-82
2022/07/18 02:13:48;;;;;;;6.20;5.53;;;11.50;99.90;;;;;;4990521;28;20034;-83
2022/07/18 02:16:14;;;;;;;12.23;5.18;;;11.50;99.90;;;;;;4976609;28;20023;-81
2022/07/18 02:18:40;;;;;;;10.98;5.35;;;11.60;99.90;;;;;;4994190;28;20417;-83
2022/07/18 02:21:09;;;;;;;12.15;6.20;;;11.50;99.90;;;;;;4977006;28;20034;-82
2022/07/18 02:23:35;;;;;;;7.80;4.65;;;11.50;99.90;;;;;;4994070;28;20022;-81
2022/07/18 02:26:01;;;;;;;9.73;4.82;;;11.50;99.90;;;;;;4994221;28;20038;-82
2022/07/18 02:28:27;;;;;;;12.73;4.95;;;11.50;99.90;;;;;;4976341;28;20026;-82
2022/07/18 02:30:53;;;;;;;5.57;4.97;;;11.50;99.90;;;;;;4976566;28;20042;-81
2022/07/18 02:33:19;;;;;;;5.95;4.93;;;11.40;99.90;;;;;;4993842;28;20023;-83
2022/07/18 02:35:45;;;;;;;5.45;4.47;;;11.40;99.90;;;;;;5012870;28;20063;-81
2022/07/18 02:38:11;;;;;;;6.57;4.38;;;11.30;99.90;;;;;;5013744;28;20022;-82
2022/07/18 02:40:36;;;;;;;8.05;4.45;;;11.30;99.90;;;;;;5013429;28;20022;-82
2022/07/18 02:43:02;;;;;;;9.93;5.03;;;11.30;99.90;;;;;;5013250;28;20061;-84
2022/07/18 02:45:28;;;;;;;8.32;5.15;;;11.20;99.90;;;;;;5013540;28;20259;-82
2022/07/18 02:47:54;;;;;;;5.82;4.47;;;11.20;99.90;;;;;;4995418;28;20021;-82
2022/07/18 02:50:21;;;;;;;9.45;4.93;;;11.30;99.90;;;;;;4995221;28;20037;-82
2022/07/18 02:52:50;;;;;;;10.23;4.35;;;11.20;99.90;;;;;;5008399;28;20077;-82
2022/07/18 02:55:16;;;;;;;9.60;5.75;;;11.20;99.90;;;;;;4993890;28;20384;-82
2022/07/18 02:57:42;;;;;;;9.93;5.35;;;11.20;99.90;;;;;;4975918;28;20102;-83
2022/07/18 03:00:11;;;;;;;8.77;4.78;;;11.20;99.90;;;;;;4975557;28;20022;-81
2022/07/18 03:02:37;;;;;;;8.00;5.43;;;11.20;99.90;;;;;;5008179;28;20056;-81
2022/07/18 03:05:04;;;;;;;12.57;4.97;;;11.10;99.90;;;;;;5011232;28;20266;-82
2022/07/18 03:07:31;;;;;;;9.80;4.95;;;11.10;99.90;;;;;;4995246;28;20433;-81
2022/07/18 03:09:56;;;;;;;5.25;4.80;;;11.10;99.90;;;;;;5012677;28;20018;-82
2022/07/18 03:12:22;;;;;;;6.82;4.65;;;11.00;99.90;;;;;;5012579;28;20142;-81
2022/07/18 03:14:48;;;;;;;8.63;4.53;;;11.00;99.90;;;;;;5012682;28;20022;-83
2022/07/18 03:17:14;;;;;;;10.07;5.63;;;11.00;99.90;;;;;;4994976;28;20045;-82
2022/07/18 03:19:40;;;;;;;8.93;5.40;;;11.00;99.90;;;;;;5010419;28;20451;-80
2022/07/18 03:22:05;;;;;;;12.35;5.10;;;11.00;99.90;;;;;;4994770;28;20051;-82
2022/07/18 03:24:32;;;;;;;6.68;4.70;;;11.00;99.90;;;;;;5011973;28;20022;-81
2022/07/18 03:26:58;;;;;;;11.30;5.15;;;11.00;99.90;;;;;;5011823;28;20440;-81
2022/07/18 03:29:23;;;;;;;12.32;5.93;;;10.90;99.90;;;;;;5012148;28;20030;-81
2022/07/18 03:31:49;;;;;;;9.55;5.20;;;10.90;99.90;;;;;;5012413;28;20029;-82
2022/07/18 03:34:15;;;;;;;5.70;4.93;;;10.80;99.90;;;;;;5012319;28;20033;-83
2022/07/18 03:36:41;;;;;;;7.00;5.47;;;10.80;99.90;;;;;;5012463;28;20025;-83
2022/07/18 03:39:09;;;;;;;9.93;4.78;;;10.80;99.90;;;;;;5010464;28;20258;-82
2022/07/18 03:41:35;;;;;;;9.32;5.35;;;10.80;99.90;;;;;;5014027;28;20041;-82
2022/07/18 03:44:02;;;;;;;7.65;5.40;;;10.80;99.90;;;;;;5015343;28;20026;-83
2022/07/18 03:46:27;;;;;;;9.45;5.95;;;10.90;99.90;;;;;;4994495;28;20037;-81
2022/07/18 03:48:53;;;;;;;10.10;5.32;;;10.90;99.90;;;;;;5012125;28;20060;-80
2022/07/18 03:51:19;;;;;;;13.95;6.82;;;10.90;99.90;;;;;;5010527;28;20026;-82
2022/07/18 03:53:45;;;;;;;6.38;5.10;;;10.90;99.90;;;;;;5010733;28;20464;-83
2022/07/18 03:56:10;;;;;;;7.72;4.70;;;11.00;99.90;;;;;;4994475;28;20097;-82
2022/07/18 03:58:36;;;;;;;7.18;5.05;;;11.10;99.90;;;;;;4994345;28;20537;-83
2022/07/18 04:01:03;;;;;;;9.15;4.93;;;11.20;99.90;;;;;;5011481;28;20045;-82
2022/07/18 04:03:28;;;;;;;10.60;4.82;;;11.20;99.90;;;;;;5011888;28;20435;-81
2022/07/18 04:05:54;;;;;;;11.38;5.07;;;11.20;99.90;;;;;;5011637;28;20113;-82
2022/07/18 04:08:20;;;;;;;7.00;4.25;;;11.30;99.90;;;;;;5011785;28;20108;-83
2022/07/18 04:10:47;;;;;;;10.48;4.90;;;11.30;99.90;;;;;;5011048;28;20056;-82
2022/07/18 04:13:13;;;;;;;10.60;4.82;;;11.40;99.90;;;;;;5011182;28;20030;-82
2022/07/18 04:15:38;;;;;;;7.95;4.80;;;11.50;99.90;;;;;;4993732;28;20025;-82
2022/07/18 04:18:06;;;;;;;11.57;5.13;;;11.60;99.90;;;;;;5010982;28;20111;-80
2022/07/18 04:20:32;;;;;;;7.68;4.70;;;11.60;99.90;;;;;;5010351;28;20022;-83
2022/07/18 04:23:00;;;;;;;11.30;5.47;;;11.60;99.90;;;;;;4993777;28;20081;-80
2022/07/18 04:25:29;;;;;;;5.85;4.25;;;11.50;99.90;;;;;;4993471;28;20374;-81
2022/07/18 04:27:56;;;;;;;7.10;4.93;;;11.60;99.90;;;;;;5011345;28;20088;-81
2022/07/18 04:30:23;;;;;;;7.85;5.18;;;11.70;99.90;;;;;;5011758;28;20034;-81
2022/07/18 04:32:50;;;;;;;7.10;5.20;;;11.80;99.90;;;;;;4993746;28;20026;-82
2022/07/18 04:35:15;;;;;;;7.65;5.18;;;11.90;99.90;;;;;;5011230;28;20109;-82
2022/07/18 04:37:41;;;;;;;8.40;5.68;;;12.10;99.90;;;;;;5010657;28;20097;-83
2022/07/18 04:40:09;;;;;;;9.65;4.65;;;12.20;99.90;;;;;;5010069;28;20038;-81
2022/07/18 04:42:35;;;;;;;20.33;5.72;;;12.30;99.90;;;;;;5011175;28;20105;-81
2022/07/18 04:45:02;;;;;;;8.82;5.35;;;12.50;99.90;;;;;;4993238;28;20026;-82
2022/07/18 04:47:28;;;;;;;9.75;4.80;;;12.50;99.90;;;;;;5011323;28;20036;-81
2022/07/18 04:49:54;;;;;;;8.65;5.95;;;12.70;99.90;;;;;;5010967;28;20089;-81
2022/07/18 04:52:21;;;;;;;7.80;5.25;;;12.80;99.90;;;;;;5011068;28;20034;-83
2022/07/18 04:54:47;;;;;;;13.23;5.90;;;12.90;99.90;;;;;;5010095;28;20109;-80
2022/07/18 04:57:14;;;;;;;6.70;5.15;;;13.00;99.90;;;;;;4993280;28;20116;-82
2022/07/18 04:59:43;;;;;;;9.45;5.38;;;13.00;99.90;;;;;;5011017;28;20106;-81
2022/07/18 05:02:10;;;;;;;7.43;4.88;;;13.10;99.90;;;;;;4993060;28;20052;-83
2022/07/18 05:04:37;;;;;;;7.55;4.65;;;13.20;99.90;;;;;;5010782;28;20022;-81
2022/07/18 05:07:03;;;;;;;8.13;4.68;;;13.30;99.90;;;;;;5010989;28;20339;-82
2022/07/18 05:09:32;;;;;;;6.10;4.70;;;13.40;99.90;;;;;;4992450;28;20457;-81
2022/07/18 05:11:58;;;;;;;6.60;4.80;;;13.60;99.90;;;;;;5010587;28;20431;-82
2022/07/18 05:14:24;;;;;;;5.65;4.15;;;13.70;99.90;;;;;;5011111;28;20109;-82
2022/07/18 05:16:49;;;;;;;9.45;4.22;;;13.90;99.90;;;;;;5010830;28;20479;-81
2022/07/18 05:19:15;;;;;;;6.47;4.40;;;14.10;99.90;;;;;;5010459;28;20057;-82
2022/07/18 05:21:44;;;;;;;8.18;4.53;;;14.20;99.90;;;;;;5010307;28;20053;-81
2022/07/18 05:24:11;;;;;;;6.95;4.82;;;14.40;99.90;;;;;;5010295;28;20014;-82
2022/07/18 05:26:37;;;;;;;7.28;4.43;;;14.50;99.90;;;;;;4973526;28;20073;-81
2022/07/18 05:29:03;;;;;;;10.10;4.88;;;14.50;99.90;;;;;;4991181;28;20462;-80
2022/07/18 05:31:28;;;;;;;5.47;4.40;;;14.60;99.90;;;;;;4973720;28;20054;-81
2022/07/18 05:33:54;;;;;;;5.75;4.07;;;14.70;99.90;;;;;;4986842;28;20511;-82
2022/07/18 05:36:20;;;;;;;7.82;5.18;;;14.80;99.90;;;;;;5010659;28;20437;-82
2022/07/18 05:38:46;;;;;;;9.82;4.97;;;14.80;99.90;;;;;;5010537;28;20362;-81
2022/07/18 05:41:11;;;;;;;6.55;4.60;;;14.90;99.90;;;;;;5010564;28;20025;-83
2022/07/18 05:43:37;;;;;;;6.20;5.03;;;15.00;99.90;;;;;;5011946;28;20491;-80
2022/07/18 05:46:03;;;;;;;10.13;4.57;;;15.10;99.90;;;;;;5012261;28;20030;-79
2022/07/18 05:48:29;;;;;;;9.25;5.65;;;15.10;99.90;;;;;;5010593;28;20469;-83
2022/07/18 05:50:54;;;;;;;7.47;5.28;;;15.30;99.90;;;;;;5015746;28;20032;-81
2022/07/18 05:53:20;;;;;;;6.07;4.88;;;15.40;99.90;;;;;;5016046;28;20358;-82
2022/07/18 05:55:46;;;;;;;8.77;5.60;;;15.50;99.90;;;;;;5014582;28;20109;-83
2022/07/18 05:58:11;;;;;;;8.18;5.18;;;15.60;99.90;;;;;;5014284;28;20022;-81
2022/07/18 06:00:37;;;;;;;6.13;5.53;;;15.70;99.90;;;;;;5014135;28;20022;-80
2022/07/18 06:03:03;;;;;;;5.40;4.45;;;15.80;99.90;;;;;;4996090;28;20054;-81
2022/07/18 06:05:29;;;;;;;6.97;5.03;;;16.00;99.90;;;;;;5012556;28;20118;-81
2022/07/18 06:07:56;;;;;;;6.90;4.65;;;16.10;99.90;;;;;;5014382;28;20029;-80
2022/07/18 06:10:24;;;;;;;4.55;3.80;;;16.20;99.90;;;;;;4996949;28;20117;-82
2022/07/18 06:12:50;;;;;;;6.90;4.85;;;16.40;99.90;;;;;;5013665;28;20393;-81
2022/07/18 06:15:16;;;;;;;15.05;5.85;;;16.50;99.90;;;;;;5014029;28;20029;-82
2022/07/18 06:17:42;;;;;;;6.43;5.63;;;16.70;99.90;;;;;;5013915;28;20029;-80
2022/07/18 06:20:09;;;;;;;6.43;4.63;;;16.90;99.90;;;;;;5013729;28;20061;-83
2022/07/18 06:22:35;;;;;;;8.00;5.13;;;17.00;99.90;;;;;;5013965;28;20223;-82
2022/07/18 06:25:01;;;;;;;6.65;4.68;;;17.20;99.90;;;;;;4996378;28;20144;-81
2022/07/18 06:27:27;;;;;;;4.55;4.15;;;17.20;99.90;;;;;;5014515;28;20117;-80
2022/07/18 06:29:52;;;;;;;6.55;4.28;;;17.40;99.90;;;;;;5013736;28;20030;-83
2022/07/18 06:32:18;;;;;;;7.70;4.03;;;17.60;99.90;;;;;;5013801;28;20022;-82
2022/07/18 06:34:44;;;;;;;9.57;4.43;;;17.80;99.90;;;;;;5005491;28;20030;-81
2022/07/18 06:37:10;;;;;;;11.02;4.55;;;18.00;99.90;;;;;;5011835;28;20097;-83
2022/07/18 06:39:35;;;;;;;8.07;3.95;;;18.20;99.90;;;;;;5013817;28;20026;-82
2022/07/18 06:42:01;;;;;;;6.25;4.15;;;18.40;99.90;;;;;;5013758;28;20014;-81
2022/07/18 06:44:27;;;;;;;5.40;4.07;;;18.60;99.90;;;;;;5013616;28;20045;-80
2022/07/18 06:46:53;;;;;;;6.05;4.28;;;18.70;99.90;;;;;;5012308;28;20029;-81
2022/07/18 06:49:19;;;;;;;5.35;4.10;;;18.80;99.90;;;;;;4988672;28;20042;-82
2022/07/18 06:51:45;;;;;;;3.72;3.38;;;19.00;99.90;;;;;;5008355;28;20085;-83
2022/07/18 06:54:10;;;;;;;7.20;3.97;;;19.20;99.90;;;;;;5013198;28;20445;-82
2022/07/18 06:56:36;;;;;;;13.80;5.18;;;19.30;99.90;;;;;;5013466;28;20077;-82
2022/07/18 06:59:02;;;;;;;5.45;3.65;;;19.40;99.90;;;;;;5013011;28;20045;-82
2022/07/18 07:01:28;;;;;;;8.27;4.03;;;19.60;99.90;;;;;;5013043;28;20398;-82
2022/07/18 07:03:53;;;;;;;10.23;4.18;;;19.60;99.90;;;;;;5015449;28;20481;-82
2022/07/18 07:06:19;;;;;;;4.70;3.92;;;19.70;99.90;;;;;;5011676;28;20041;-82
2022/07/18 07:08:45;;;;;;;10.75;4.25;;;19.70;99.90;;;;;;5013070;28;20473;-81
2022/07/18 07:11:10;;;;;;;9.60;5.20;;;19.70;99.90;;;;;;5013626;28;20088;-80
2022/07/18 07:13:36;;;;;;;4.97;3.92;;;19.70;99.90;;;;;;5016546;28;20520;-81
2022/07/18 07:16:02;;;;;;;7.80;4.22;;;19.80;99.90;;;;;;5025827;28;20073;-81
2022/07/18 07:18:28;;;;;;;5.57;4.18;;;19.80;99.90;;;;;;5024569;28;20010;-80
2022/07/18 07:20:54;;;;;;;14.23;3.88;;;20.00;99.90;;;;;;5018481;28;20022;-82
2022/07/18 07:23:19;;;;;;;9.55;3.83;;;20.10;99.90;;;;;;5025392;28;20052;-80
2022/07/18 07:25:45;;;;;;;11.18;4.68;;;20.10;99.90;;;;;;5024164;28;20030;-81
2022/07/18 07:28:11;;;;;;;6.95;4.10;;;20.20;99.90;;;;;;5023502;28;20168;-82
2022/07/18 07:30:36;;;;;;;9.48;5.13;;;20.20;99.90;;;;;;5009463;28;20045;-84
2022/07/18 07:33:03;;;;;;;10.50;4.80;;;20.30;99.70;;;;;;5027046;28;20032;-82
2022/07/18 07:35:29;;;;;;;4.95;4.10;;;20.30;99.90;;;;;;5017601;28;20022;-82
2022/07/18 07:37:57;;;;;;;9.05;4.18;;;20.40;99.90;;;;;;5012855;28;20114;-83
2022/07/18 07:40:25;;;;;;;10.30;4.75;;;20.60;99.90;;;;;;4994958;28;20109;-81
2022/07/18 07:42:51;;;;;;;5.78;4.20;;;20.70;99.90;;;;;;5012226;28;20560;-81
2022/07/18 07:45:18;;;;;;;6.13;3.30;;;20.80;99.40;;;;;;5011749;28;20045;-82
2022/07/18 07:47:44;;;;;;;5.18;3.00;;;20.80;99.30;;;;;;5012293;28;20032;-81
2022/07/18 07:50:11;;;;;;;14.85;3.17;;;20.90;99.60;;;;;;5012222;28;20100;-81
2022/07/18 07:52:38;;;;;;;6.18;3.03;;;21.10;99.00;;;;;;5012038;28;20482;-81
2022/07/18 07:55:07;;;;;;;5.10;2.85;;;21.20;97.90;;;;;;5011109;28;20021;-82
2022/07/18 07:57:35;;;;;;;7.15;3.17;;;21.30;97.30;;;;;;4994172;28;20025;-82
2022/07/18 08:00:03;;;;;;;5.38;3.33;;;21.30;98.00;;;;;;4994290;28;20367;-83
2022/07/18 08:02:29;;;;;;;4.68;2.58;;;21.40;97.10;;;;;;5011676;28;20045;-83
2022/07/18 08:04:54;;;;;;;5.97;3.63;;;21.60;97.80;;;;;;5011806;28;20389;-81
2022/07/18 08:07:20;;;;;;;6.65;3.53;;;21.60;97.70;;;;;;5012024;28;20022;-82
2022/07/18 08:09:46;;;;;;;4.82;3.05;;;21.60;97.30;;;;;;5010612;28;20022;-81
2022/07/18 08:12:12;;;;;;;11.15;7.60;;;21.70;96.60;;;;;;5009557;28;20385;-81
2022/07/18 08:14:40;;;;;;;6.93;3.40;;;21.70;95.90;;;;;;5011849;28;20022;-83
2022/07/18 08:17:06;;;;;;;10.27;3.10;;;21.80;95.30;;;;;;5011993;28;20025;-83
2022/07/18 08:19:31;;;;;;;2.65;2.45;;;21.90;95.50;;;;;;5011771;28;20029;-82
2022/07/18 08:21:57;;;;;;;5.68;2.90;;;22.10;97.00;;;;;;5011606;28;20033;-82
2022/07/18 08:24:23;;;;;;;7.28;3.30;;;22.10;95.70;;;;;;5011404;28;20026;-82
2022/07/18 08:26:49;;;;;;;14.38;10.90;;;22.30;96.10;;;;;;5010650;28;20117;-81
2022/07/18 08:29:14;;;;;;;5.80;3.58;;;22.30;94.90;;;;;;5011366;28;20022;-84
2022/07/18 08:31:40;;;;;;;4.07;3.00;;;22.30;95.00;;;;;;4993527;28;20493;-82
2022/07/18 08:34:06;;;;;;;4.93;2.78;;;22.40;94.50;;;;;;5011344;28;20030;-84
2022/07/18 08:36:31;;;;;;;6.90;3.47;;;22.70;94.30;;;;;;5011152;28;20034;-81
2022/07/18 08:38:57;;;;;;;4.10;3.70;;;22.90;93.20;;;;;;5011394;28;20026;-81
2022/07/18 08:41:24;;;;;;;10.77;3.00;;;22.80;93.30;;;;;;5010438;28;20469;-80
2022/07/18 08:43:50;;;;;;;7.03;2.42;;;22.90;92.70;;;;;;5009978;28;20030;-82
2022/07/18 08:46:21;;;;;;;5.30;2.70;;;23.20;93.60;;;;;;5011350;28;20053;-83
2022/07/18 08:48:47;;;;;;;3.47;2.78;;;23.40;92.90;;;;;;5011373;28;20052;-81
2022/07/18 08:51:13;;;;;;;4.03;2.90;;;23.50;93.20;;;;;;5011286;28;20385;-82
2022/07/18 08:53:39;;;;;;;3.10;2.65;;;23.60;93.50;;;;;;4992604;28;20026;-85
2022/07/18 08:56:05;;;;;;;4.55;2.65;;;23.60;92.10;;;;;;5009865;28;20053;-83
2022/07/18 08:58:31;;;;;;;3.58;2.55;;;23.60;93.10;;;;;;5011129;28;20680;-80
2022/07/18 09:01:00;;;;;;;12.43;2.50;;;23.90;93.60;;;;;;5010996;28;20029;-82
2022/07/18 09:03:26;;;;;;;9.60;2.50;;;24.20;93.20;;;;;;5011151;28;20022;-81
2022/07/18 09:06:08;;;;;;;5.30;3.00;;;24.30;91.80;;;;;;5009390;28;20026;-81
2022/07/18 09:08:35;;;;;;;10.13;2.97;;;24.10;90.50;;;;;;5008828;28;20215;-82
2022/07/18 09:11:03;;;;;;;8.02;3.00;;;24.00;88.40;;;;;;5002952;28;20034;-82
2022/07/18 09:13:40;;;;;;;5.13;2.30;;;24.10;91.20;;;;;;5001177;28;20509;-81
2022/07/18 09:16:11;;;;;;;9.20;2.80;;;24.30;91.70;;;;;;4997683;28;20029;-83
2022/07/18 09:18:36;;;;;;;2.47;2.08;;;24.50;90.90;;;;;;4988360;28;20034;-81
2022/07/18 09:21:08;;;;;;;7.85;2.70;;;24.50;90.80;;;;;;5000926;28;20038;-81
2022/07/18 09:23:36;;;;;;;3.35;2.42;;;24.80;90.70;;;;;;4992825;28;20041;-83
2022/07/18 09:26:03;;;;;;;8.23;2.70;;;25.10;89.00;;;;;;5005207;28;20033;-83
2022/07/18 09:28:44;;;;;;;5.05;3.20;;;25.40;90.90;;;;;;4989875;28;20544;-81
2022/07/18 09:31:18;;;;;;;6.78;2.83;;;25.50;90.30;;;;;;5004374;28;20049;-81
2022/07/18 09:33:55;;;;;;;7.05;2.42;;;25.60;86.10;;;;;;5005834;28;20026;-84
2022/07/18 09:36:21;;;;;;;4.80;2.63;;;25.60;89.00;;;;;;5005073;28;20053;-83
2022/07/18 09:38:47;;;;;;;5.18;2.75;;;25.80;88.70;;;;;;4992450;28;20037;-82
2022/07/18 09:41:13;;;;;;;3.95;1.95;;;25.90;84.60;;;;;;4988576;28;20034;-84
2022/07/18 09:43:39;;;;;;;9.02;2.00;;;25.90;84.00;;;;;;4988316;28;20034;-82
2022/07/18 09:46:06;;;;;;;5.30;2.13;;;26.00;82.40;;;;;;4992157;28;20037;-82
2022/07/18 09:48:32;;;;;;;4.60;2.28;;;26.20;82.40;;;;;;4990768;28;20045;-82
2022/07/18 09:51:02;;;;;;;5.43;2.53;;;26.20;83.70;;;;;;4997416;28;20022;-82
2022/07/18 09:53:35;;;;;;;3.33;1.85;;;26.00;80.60;;;;;;4997638;28;20050;-83
2022/07/18 09:56:06;;;;;;;4.40;1.65;;;26.30;81.00;;;;;;4990320;28;20331;-81
2022/07/18 09:58:37;;;;;;;4.78;1.60;;;26.60;80.70;;;;;;5002830;28;20041;-81
2022/07/18 10:01:04;;;;;;;3.50;1.80;;;26.90;78.90;;;;;;5006922;28;20068;-83
2022/07/18 10:03:30;;;;;;;5.70;1.90;;;26.90;75.90;;;;;;4994003;28;20104;-80
2022/07/18 10:05:58;;;;;;;10.23;1.90;;;26.70;73.00;;;;;;5004835;28;20021;-83
2022/07/18 10:08:26;;;;;;;3.22;1.45;;;26.60;73.30;;;;;;4987568;28;20037;-84
2022/07/18 10:10:54;;;;;;;5.03;2.03;;;26.70;75.70;;;;;;5006380;28;20036;-83
2022/07/18 10:13:22;;;;;;;6.78;1.85;;;26.70;75.10;;;;;;5002466;28;20040;-83
2022/07/18 10:15:52;;;;;;;2.67;1.80;;;27.10;77.00;;;;;;5004115;28;20021;-83
2022/07/18 10:18:22;;;;;;;8.43;2.33;;;27.40;80.70;;;;;;5004634;28;20493;-81
2022/07/18 10:21:08;;;;;;;4.28;1.65;;;27.50;73.70;;;;;;5005349;28;20033;-82
2022/07/18 10:23:46;;;;;;;8.00;2.20;;;27.40;70.20;;;;;;4999568;28;20491;-83
2022/07/18 10:26:21;;;;;;;2.45;1.73;;;27.50;72.60;;;;;;4994335;28;20052;-84
2022/07/18 10:28:56;;;;;;;2.70;1.80;;;27.60;70.40;;;;;;5009925;28;20100;-83
2022/07/18 10:31:30;;;;;;;2.63;1.52;;;27.60;68.30;;;;;;4974971;28;20168;-83
2022/07/18 10:34:04;;;;;;;2.92;1.60;;;27.80;66.60;;;;;;5003201;28;20628;-83
2022/07/18 10:36:30;;;;;;;3.88;2.20;;;27.90;67.20;;;;;;5011301;28;20034;-81
2022/07/18 10:39:25;;;;;;;6.70;2.10;;;28.20;69.40;;;;;;4995024;28;20026;-81
2022/07/18 10:42:12;;;;;;;5.55;1.77;;;28.20;69.10;;;;;;5012369;28;20025;-83
2022/07/18 10:44:41;;;;;;;2.70;1.40;;;27.90;64.40;;;;;;5013392;28;20025;-83
2022/07/18 10:47:17;;;;;;;3.05;1.50;;;28.00;62.20;;;;;;5012861;28;20066;-81
2022/07/18 10:50:04;;;;;;;7.82;1.58;;;28.20;65.90;;;;;;4996717;28;20022;-83
2022/07/18 10:52:29;;;;;;;3.88;1.75;;;28.20;64.20;;;;;;5003855;28;20029;-81
2022/07/18 10:55:08;;;;;;;3.95;2.00;;;28.20;66.70;;;;;;5012982;28;20026;-84
2022/07/18 10:57:34;;;;;;;4.88;1.77;;;28.20;64.40;;;;;;5012972;28;20050;-83
2022/07/18 11:00:08;;;;;;;4.13;1.73;;;28.40;67.20;;;;;;5012861;28;20496;-82
2022/07/18 11:02:44;;;;;;;5.45;2.28;;;28.30;64.90;;;;;;5012770;28;20222;-84
2022/07/18 11:05:25;;;;;;;7.53;1.60;;;28.30;65.60;;;;;;4995182;28;20029;-84
2022/07/18 11:08:08;;;;;;;4.13;1.30;;;28.80;62.90;;;;;;4994243;28;20623;-83
2022/07/18 11:11:04;;;;;;;5.35;1.73;;;29.00;60.70;;;;;;5012700;28;20026;-83
2022/07/18 11:13:40;;;;;;;4.50;1.80;;;28.50;57.90;;;;;;4994205;28;20041;-83
2022/07/18 11:16:12;;;;;;;3.50;1.70;;;28.80;60.60;;;;;;4994826;28;20034;-83
2022/07/18 11:18:41;;;;;;;8.50;1.83;;;28.80;59.90;;;;;;5012562;28;20018;-82
2022/07/18 11:21:23;;;;;;;2.38;1.50;;;28.80;57.80;;;;;;4995152;28;20525;-82
2022/07/18 11:24:14;;;;;;;10.85;1.83;;;29.10;57.90;;;;;;4994483;28;20397;-83
2022/07/18 11:26:46;;;;;;;2.92;1.70;;;29.50;57.70;;;;;;5010055;28;20034;-82
2022/07/18 11:29:13;;;;;;;4.18;1.85;;;29.80;60.60;;;;;;5012159;28;20022;-81
2022/07/18 11:31:53;;;;;;;5.65;1.83;;;29.70;57.70;;;;;;5012453;28;20048;-84
2022/07/18 11:34:21;;;;;;;5.63;1.67;;;29.70;58.20;;;;;;5009387;28;20028;-80
2022/07/18 11:36:48;;;;;;;6.30;1.65;;;29.40;53.80;;;;;;4990719;28;20497;-83
2022/07/18 11:39:26;;;;;;;3.58;1.42;;;29.40;56.20;;;;;;5008725;28;20847;-84
2022/07/18 11:41:52;;;;;;;3.85;1.52;;;29.70;56.50;;;;;;5010328;28;20044;-83
2022/07/18 11:44:26;;;;;;;3.35;1.42;;;29.40;57.00;;;;;;5009085;28;20095;-81
2022/07/18 11:47:21;;;;;;;7.78;1.30;;;29.70;56.00;;;;;;4990562;28;20101;-83
2022/07/18 11:49:58;;;;;;;6.43;1.50;;;29.90;52.10;;;;;;4981857;28;20064;-85
2022/07/18 11:52:25;;;;;;;3.35;1.40;;;30.10;53.90;;;;;;4996783;28;20084;-82
2022/07/18 11:54:51;;;;;;;4.88;1.50;;;29.70;53.20;;;;;;5030818;28;20612;-83
2022/07/18 11:57:30;;;;;;;4.15;1.67;;;30.10;54.00;;;;;;5031795;28;20051;-83
2022/07/18 11:59:58;;;;;;;28.60;2.60;;;30.40;53.40;;;;;;5013883;28;20033;-83
2022/07/18 12:03:01;;;;;;;4.25;1.77;;;30.60;51.30;;;;;;5011662;28;20110;-82
2022/07/18 12:05:36;;;;;;;22.23;3.45;;;30.50;50.60;;;;;;5011818;28;20465;-84
2022/07/18 12:08:26;;;;;;;6.80;1.48;;;30.70;50.20;;;;;;5012974;28;20724;-80
2022/07/18 12:11:12;;;;;;;9.50;1.90;;;30.90;49.30;;;;;;5013909;28;20022;-82
2022/07/18 12:14:07;;;;;;;3.50;1.40;;;31.00;47.50;;;;;;5012792;28;20044;-81
2022/07/18 12:16:39;;;;;;;2.47;1.35;;;31.10;46.10;;;;;;4968101;28;20121;-82
2022/07/18 12:19:15;;;;;;;1.95;1.08;;;32.10;45.30;;;;;;4993519;28;20077;-84
2022/07/18 12:21:54;;;;;;;2.75;1.45;;;32.80;44.20;;;;;;4993548;28;20030;-82
2022/07/18 12:24:33;;;;;;;5.43;1.45;;;33.00;42.00;;;;;;5011681;28;20500;-83
2022/07/18 12:27:18;;;;;;;6.80;1.00;;;33.30;40.60;;;;;;4993593;28;20375;-83
2022/07/18 12:30:03;;;;;;;5.93;1.83;;;34.40;43.70;;;;;;4993598;28;20337;-82
2022/07/18 12:32:59;;;;;;;24.95;2.85;;;34.50;40.30;;;;;;4993590;28;20025;-83
2022/07/18 12:35:30;;;;;;;50.15;4.35;;;34.30;39.70;;;;;;4990558;28;20034;-85
2022/07/18 12:38:09;;;;;;;3.80;1.30;;;34.30;39.80;;;;;;5011237;28;20053;-83
2022/07/18 12:40:39;;;;;;;4.72;0.95;;;34.10;40.00;;;;;;5017607;28;20054;-83
2022/07/18 12:43:12;;;;;;;2.97;1.45;;;35.20;40.60;;;;;;5022423;28;20057;-82
2022/07/18 12:45:39;;;;;;;4.00;1.25;;;36.40;41.00;;;;;;5014987;28;20025;-81
2022/07/18 12:48:14;;;;;;;11.20;1.50;;;35.70;40.00;;;;;;5013105;28;20039;-82
2022/07/18 12:50:41;;;;;;;4.53;1.48;;;34.80;39.30;;;;;;4995140;28;20038;-82
2022/07/18 12:53:08;;;;;;;6.05;1.20;;;35.20;44.40;;;;;;5011596;28;20116;-83
2022/07/18 12:55:35;;;;;;;5.38;1.63;;;35.20;40.90;;;;;;4993502;28;20157;-81